sensor_id;sensor_type;location;lat;lon;timestamp;P1;durP1;ratioP1;P2;durP2;ratioP2
12363;SDS011;6246;50.826;4.712;2022-11-20T00:00:53;7.37;;;6.40;;
12363;SDS011;6246;50.826;4.712;2022-11-20T00:03:19;6.70;;;6.00;;
12363;SDS011;6246;50.826;4.712;2022-11-20T00:05:45;8.20;;;6.40;;
12363;SDS011;6246;50.826;4.712;2022-11-20T00:08:11;7.10;;;6.03;;
12363;SDS011;6246;50.826;4.712;2022-11-20T00:10:38;7.03;;;5.97;;
12363;SDS011;6246;50.826;4.712;2022-11-20T00:13:04;7.97;;;6.60;;
12363;SDS011;6246;50.826;4.712;2022-11-20T00:15:30;7.83;;;6.07;;
12363;SDS011;6246;50.826;4.712;2022-11-20T00:17:56;6.53;;;5.90;;
12363;SDS011;6246;50.826;4.712;2022-11-20T00:20:22;7.20;;;5.80;;
12363;SDS011;6246;50.826;4.712;2022-11-20T00:22:49;6.63;;;5.90;;
12363;SDS011;6246;50.826;4.712;2022-11-20T00:25:15;7.23;;;6.30;;
12363;SDS011;6246;50.826;4.712;2022-11-20T00:27:41;6.33;;;5.43;;
12363;SDS011;6246;50.826;4.712;2022-11-20T00:30:07;7.50;;;6.10;;
12363;SDS011;6246;50.826;4.712;2022-11-20T00:32:33;8.03;;;6.27;;
12363;SDS011;6246;50.826;4.712;2022-11-20T00:34:59;7.13;;;6.00;;
12363;SDS011;6246;50.826;4.712;2022-11-20T00:37:25;6.43;;;5.73;;
12363;SDS011;6246;50.826;4.712;2022-11-20T00:39:51;7.57;;;5.97;;
12363;SDS011;6246;50.826;4.712;2022-11-20T00:42:17;7.47;;;5.80;;
12363;SDS011;6246;50.826;4.712;2022-11-20T00:44:43;6.83;;;5.67;;
12363;SDS011;6246;50.826;4.712;2022-11-20T00:47:09;6.20;;;5.60;;
12363;SDS011;6246;50.826;4.712;2022-11-20T00:49:35;6.03;;;5.43;;
12363;SDS011;6246;50.826;4.712;2022-11-20T00:52:01;6.27;;;5.50;;
12363;SDS011;6246;50.826;4.712;2022-11-20T00:54:27;7.67;;;6.00;;
12363;SDS011;6246;50.826;4.712;2022-11-20T00:56:53;8.17;;;5.90;;
12363;SDS011;6246;50.826;4.712;2022-11-20T00:59:19;6.23;;;5.40;;
12363;SDS011;6246;50.826;4.712;2022-11-20T01:01:46;6.23;;;5.63;;
12363;SDS011;6246;50.826;4.712;2022-11-20T01:04:12;5.97;;;5.37;;
12363;SDS011;6246;50.826;4.712;2022-11-20T01:06:38;5.97;;;5.20;;
12363;SDS011;6246;50.826;4.712;2022-11-20T01:09:05;6.47;;;5.70;;
12363;SDS011;6246;50.826;4.712;2022-11-20T01:11:33;7.20;;;5.60;;
12363;SDS011;6246;50.826;4.712;2022-11-20T01:13:59;5.63;;;5.03;;
12363;SDS011;6246;50.826;4.712;2022-11-20T01:16:30;6.07;;;5.47;;
12363;SDS011;6246;50.826;4.712;2022-11-20T01:18:57;6.20;;;5.50;;
12363;SDS011;6246;50.826;4.712;2022-11-20T01:21:27;6.23;;;5.63;;
12363;SDS011;6246;50.826;4.712;2022-11-20T01:23:54;5.97;;;5.20;;
12363;SDS011;6246;50.826;4.712;2022-11-20T01:26:21;6.77;;;5.20;;
12363;SDS011;6246;50.826;4.712;2022-11-20T01:28:47;5.90;;;5.30;;
12363;SDS011;6246;50.826;4.712;2022-11-20T01:31:17;5.93;;;5.40;;
12363;SDS011;6246;50.826;4.712;2022-11-20T01:33:44;6.13;;;5.53;;
12363;SDS011;6246;50.826;4.712;2022-11-20T01:36:10;6.77;;;5.40;;
12363;SDS011;6246;50.826;4.712;2022-11-20T01:38:37;5.90;;;5.33;;
12363;SDS011;6246;50.826;4.712;2022-11-20T01:41:03;6.10;;;5.50;;
12363;SDS011;6246;50.826;4.712;2022-11-20T01:43:29;5.97;;;5.37;;
12363;SDS011;6246;50.826;4.712;2022-11-20T01:46:14;5.77;;;5.17;;
12363;SDS011;6246;50.826;4.712;2022-11-20T01:49:27;5.40;;;4.83;;
12363;SDS011;6246;50.826;4.712;2022-11-20T01:53:57;5.67;;;5.07;;
12363;SDS011;6246;50.826;4.712;2022-11-20T01:56:25;5.63;;;5.00;;
12363;SDS011;6246;50.826;4.712;2022-11-20T01:58:52;6.13;;;5.50;;
12363;SDS011;6246;50.826;4.712;2022-11-20T02:01:20;5.73;;;4.90;;
12363;SDS011;6246;50.826;4.712;2022-11-20T02:03:46;5.67;;;5.10;;
12363;SDS011;6246;50.826;4.712;2022-11-20T02:06:29;5.87;;;5.37;;
12363;SDS011;6246;50.826;4.712;2022-11-20T02:08:56;6.77;;;5.63;;
12363;SDS011;6246;50.826;4.712;2022-11-20T02:11:22;5.67;;;5.13;;
12363;SDS011;6246;50.826;4.712;2022-11-20T02:13:48;5.53;;;5.03;;
12363;SDS011;6246;50.826;4.712;2022-11-20T02:16:22;5.37;;;4.87;;
12363;SDS011;6246;50.826;4.712;2022-11-20T02:18:49;5.73;;;5.17;;
12363;SDS011;6246;50.826;4.712;2022-11-20T02:24:14;7.90;;;5.30;;
12363;SDS011;6246;50.826;4.712;2022-11-20T02:26:43;6.47;;;5.50;;
12363;SDS011;6246;50.826;4.712;2022-11-20T02:29:09;6.10;;;5.50;;
12363;SDS011;6246;50.826;4.712;2022-11-20T02:31:36;6.00;;;5.27;;
12363;SDS011;6246;50.826;4.712;2022-11-20T02:34:03;6.77;;;4.80;;
12363;SDS011;6246;50.826;4.712;2022-11-20T02:36:29;7.00;;;5.80;;
12363;SDS011;6246;50.826;4.712;2022-11-20T02:38:56;6.27;;;5.27;;
12363;SDS011;6246;50.826;4.712;2022-11-20T02:41:29;6.07;;;5.20;;
12363;SDS011;6246;50.826;4.712;2022-11-20T02:43:55;6.77;;;5.60;;
12363;SDS011;6246;50.826;4.712;2022-11-20T02:46:21;6.10;;;5.37;;
12363;SDS011;6246;50.826;4.712;2022-11-20T02:48:47;6.87;;;5.60;;
12363;SDS011;6246;50.826;4.712;2022-11-20T02:51:13;5.90;;;5.30;;
12363;SDS011;6246;50.826;4.712;2022-11-20T02:53:39;6.27;;;5.43;;
12363;SDS011;6246;50.826;4.712;2022-11-20T02:56:05;6.40;;;5.53;;
12363;SDS011;6246;50.826;4.712;2022-11-20T02:58:32;6.87;;;5.57;;
12363;SDS011;6246;50.826;4.712;2022-11-20T03:00:58;6.33;;;5.63;;
12363;SDS011;6246;50.826;4.712;2022-11-20T03:03:24;6.20;;;5.53;;
12363;SDS011;6246;50.826;4.712;2022-11-20T03:05:50;6.10;;;5.50;;
12363;SDS011;6246;50.826;4.712;2022-11-20T03:08:15;6.90;;;4.93;;
12363;SDS011;6246;50.826;4.712;2022-11-20T03:10:41;6.10;;;5.23;;
12363;SDS011;6246;50.826;4.712;2022-11-20T03:13:07;7.77;;;5.93;;
12363;SDS011;6246;50.826;4.712;2022-11-20T03:15:35;6.77;;;5.90;;
12363;SDS011;6246;50.826;4.712;2022-11-20T03:18:01;6.33;;;5.40;;
12363;SDS011;6246;50.826;4.712;2022-11-20T03:20:27;7.03;;;5.80;;
12363;SDS011;6246;50.826;4.712;2022-11-20T03:22:54;5.67;;;5.07;;
12363;SDS011;6246;50.826;4.712;2022-11-20T03:25:20;6.53;;;5.70;;
12363;SDS011;6246;50.826;4.712;2022-11-20T03:27:46;6.23;;;5.63;;
12363;SDS011;6246;50.826;4.712;2022-11-20T03:30:12;6.67;;;5.70;;
12363;SDS011;6246;50.826;4.712;2022-11-20T03:32:38;6.37;;;5.67;;
12363;SDS011;6246;50.826;4.712;2022-11-20T03:35:05;5.90;;;5.30;;
12363;SDS011;6246;50.826;4.712;2022-11-20T03:37:31;6.93;;;6.00;;
12363;SDS011;6246;50.826;4.712;2022-11-20T03:39:57;6.20;;;5.60;;
12363;SDS011;6246;50.826;4.712;2022-11-20T03:42:23;6.53;;;5.67;;
12363;SDS011;6246;50.826;4.712;2022-11-20T03:45:09;7.20;;;5.37;;
12363;SDS011;6246;50.826;4.712;2022-11-20T03:47:35;6.80;;;5.83;;
12363;SDS011;6246;50.826;4.712;2022-11-20T03:50:01;7.10;;;5.90;;
12363;SDS011;6246;50.826;4.712;2022-11-20T03:52:27;7.07;;;6.13;;
12363;SDS011;6246;50.826;4.712;2022-11-20T03:54:53;6.80;;;5.60;;
12363;SDS011;6246;50.826;4.712;2022-11-20T03:57:19;7.13;;;5.93;;
12363;SDS011;6246;50.826;4.712;2022-11-20T03:59:45;7.23;;;6.40;;
12363;SDS011;6246;50.826;4.712;2022-11-20T04:02:11;6.50;;;5.80;;
12363;SDS011;6246;50.826;4.712;2022-11-20T04:04:37;6.87;;;5.80;;
12363;SDS011;6246;50.826;4.712;2022-11-20T04:07:03;7.27;;;6.03;;
12363;SDS011;6246;50.826;4.712;2022-11-20T04:09:29;7.20;;;6.00;;
12363;SDS011;6246;50.826;4.712;2022-11-20T04:11:55;8.07;;;6.17;;
12363;SDS011;6246;50.826;4.712;2022-11-20T04:14:21;6.40;;;5.60;;
12363;SDS011;6246;50.826;4.712;2022-11-20T04:16:47;8.70;;;6.20;;
12363;SDS011;6246;50.826;4.712;2022-11-20T04:19:14;6.70;;;5.80;;
12363;SDS011;6246;50.826;4.712;2022-11-20T04:21:40;6.27;;;5.67;;
12363;SDS011;6246;50.826;4.712;2022-11-20T04:24:07;6.60;;;5.90;;
12363;SDS011;6246;50.826;4.712;2022-11-20T04:26:33;7.50;;;6.37;;
12363;SDS011;6246;50.826;4.712;2022-11-20T04:28:59;6.90;;;6.03;;
12363;SDS011;6246;50.826;4.712;2022-11-20T04:31:29;7.70;;;5.97;;
12363;SDS011;6246;50.826;4.712;2022-11-20T04:33:58;6.73;;;6.03;;
12363;SDS011;6246;50.826;4.712;2022-11-20T04:36:25;7.33;;;5.93;;
12363;SDS011;6246;50.826;4.712;2022-11-20T04:38:58;6.93;;;5.80;;
12363;SDS011;6246;50.826;4.712;2022-11-20T04:41:26;7.33;;;6.10;;
12363;SDS011;6246;50.826;4.712;2022-11-20T04:43:53;9.57;;;6.30;;
12363;SDS011;6246;50.826;4.712;2022-11-20T04:46:24;7.00;;;6.03;;
12363;SDS011;6246;50.826;4.712;2022-11-20T04:48:50;6.97;;;5.90;;
12363;SDS011;6246;50.826;4.712;2022-11-20T04:51:16;8.07;;;5.87;;
12363;SDS011;6246;50.826;4.712;2022-11-20T04:53:42;6.90;;;6.20;;
12363;SDS011;6246;50.826;4.712;2022-11-20T04:56:08;7.27;;;5.97;;
12363;SDS011;6246;50.826;4.712;2022-11-20T04:58:35;6.83;;;6.00;;
12363;SDS011;6246;50.826;4.712;2022-11-20T05:01:05;7.07;;;5.63;;
12363;SDS011;6246;50.826;4.712;2022-11-20T05:03:32;7.93;;;6.30;;
12363;SDS011;6246;50.826;4.712;2022-11-20T05:06:01;6.93;;;6.03;;
12363;SDS011;6246;50.826;4.712;2022-11-20T05:08:27;6.87;;;5.93;;
12363;SDS011;6246;50.826;4.712;2022-11-20T05:10:53;7.57;;;5.97;;
12363;SDS011;6246;50.826;4.712;2022-11-20T05:13:19;7.53;;;6.10;;
12363;SDS011;6246;50.826;4.712;2022-11-20T05:15:45;7.47;;;6.07;;
12363;SDS011;6246;50.826;4.712;2022-11-20T05:18:11;7.83;;;6.20;;
12363;SDS011;6246;50.826;4.712;2022-11-20T05:20:37;6.97;;;6.27;;
12363;SDS011;6246;50.826;4.712;2022-11-20T05:23:03;6.80;;;5.80;;
12363;SDS011;6246;50.826;4.712;2022-11-20T05:25:29;6.00;;;5.33;;
12363;SDS011;6246;50.826;4.712;2022-11-20T05:27:55;6.70;;;5.90;;
12363;SDS011;6246;50.826;4.712;2022-11-20T05:30:21;7.00;;;6.30;;
12363;SDS011;6246;50.826;4.712;2022-11-20T05:32:47;6.70;;;5.43;;
12363;SDS011;6246;50.826;4.712;2022-11-20T05:35:13;6.60;;;5.87;;
12363;SDS011;6246;50.826;4.712;2022-11-20T05:37:39;6.97;;;5.63;;
12363;SDS011;6246;50.826;4.712;2022-11-20T05:40:05;8.47;;;6.57;;
12363;SDS011;6246;50.826;4.712;2022-11-20T05:42:31;7.23;;;6.03;;
12363;SDS011;6246;50.826;4.712;2022-11-20T05:45:01;6.10;;;5.47;;
12363;SDS011;6246;50.826;4.712;2022-11-20T05:47:28;7.80;;;6.30;;
12363;SDS011;6246;50.826;4.712;2022-11-20T05:49:56;7.47;;;5.97;;
12363;SDS011;6246;50.826;4.712;2022-11-20T05:52:22;8.10;;;6.07;;
12363;SDS011;6246;50.826;4.712;2022-11-20T05:54:48;6.57;;;5.97;;
12363;SDS011;6246;50.826;4.712;2022-11-20T05:57:14;7.37;;;6.00;;
12363;SDS011;6246;50.826;4.712;2022-11-20T05:59:40;7.97;;;5.97;;
12363;SDS011;6246;50.826;4.712;2022-11-20T06:02:06;7.13;;;5.57;;
12363;SDS011;6246;50.826;4.712;2022-11-20T06:04:32;7.60;;;6.17;;
12363;SDS011;6246;50.826;4.712;2022-11-20T06:06:58;6.80;;;5.60;;
12363;SDS011;6246;50.826;4.712;2022-11-20T06:09:24;7.20;;;5.70;;
12363;SDS011;6246;50.826;4.712;2022-11-20T06:11:50;7.40;;;6.10;;
12363;SDS011;6246;50.826;4.712;2022-11-20T06:14:16;6.83;;;5.70;;
12363;SDS011;6246;50.826;4.712;2022-11-20T06:16:42;6.77;;;5.93;;
12363;SDS011;6246;50.826;4.712;2022-11-20T06:19:08;7.20;;;5.87;;
12363;SDS011;6246;50.826;4.712;2022-11-20T06:21:34;7.10;;;6.13;;
12363;SDS011;6246;50.826;4.712;2022-11-20T06:24:00;8.33;;;6.30;;
12363;SDS011;6246;50.826;4.712;2022-11-20T06:26:26;6.53;;;5.77;;
12363;SDS011;6246;50.826;4.712;2022-11-20T06:28:53;7.27;;;5.90;;
12363;SDS011;6246;50.826;4.712;2022-11-20T06:31:21;8.47;;;6.33;;
12363;SDS011;6246;50.826;4.712;2022-11-20T06:33:47;8.23;;;5.93;;
12363;SDS011;6246;50.826;4.712;2022-11-20T06:36:15;6.93;;;5.90;;
12363;SDS011;6246;50.826;4.712;2022-11-20T06:38:42;6.97;;;5.70;;
12363;SDS011;6246;50.826;4.712;2022-11-20T06:41:12;6.97;;;5.97;;
12363;SDS011;6246;50.826;4.712;2022-11-20T06:43:38;7.53;;;6.20;;
12363;SDS011;6246;50.826;4.712;2022-11-20T06:46:04;7.13;;;5.90;;
12363;SDS011;6246;50.826;4.712;2022-11-20T06:48:31;7.37;;;6.23;;
12363;SDS011;6246;50.826;4.712;2022-11-20T06:50:57;9.40;;;5.87;;
12363;SDS011;6246;50.826;4.712;2022-11-20T06:53:23;8.17;;;6.30;;
12363;SDS011;6246;50.826;4.712;2022-11-20T06:55:49;7.53;;;6.10;;
12363;SDS011;6246;50.826;4.712;2022-11-20T06:58:16;8.63;;;6.70;;
12363;SDS011;6246;50.826;4.712;2022-11-20T07:00:43;8.13;;;6.37;;
12363;SDS011;6246;50.826;4.712;2022-11-20T07:03:10;7.87;;;6.20;;
12363;SDS011;6246;50.826;4.712;2022-11-20T07:05:36;6.53;;;5.80;;
12363;SDS011;6246;50.826;4.712;2022-11-20T07:08:03;9.87;;;6.40;;
12363;SDS011;6246;50.826;4.712;2022-11-20T07:10:29;10.10;;;6.60;;
12363;SDS011;6246;50.826;4.712;2022-11-20T07:12:55;8.07;;;6.53;;
12363;SDS011;6246;50.826;4.712;2022-11-20T07:15:22;8.43;;;6.43;;
12363;SDS011;6246;50.826;4.712;2022-11-20T07:17:48;8.53;;;6.27;;
12363;SDS011;6246;50.826;4.712;2022-11-20T07:20:14;9.43;;;6.10;;
12363;SDS011;6246;50.826;4.712;2022-11-20T07:22:40;8.63;;;6.57;;
12363;SDS011;6246;50.826;4.712;2022-11-20T07:25:06;7.60;;;6.40;;
12363;SDS011;6246;50.826;4.712;2022-11-20T07:27:33;7.93;;;6.33;;
12363;SDS011;6246;50.826;4.712;2022-11-20T07:29:59;8.37;;;6.60;;
12363;SDS011;6246;50.826;4.712;2022-11-20T07:32:25;9.23;;;6.60;;
12363;SDS011;6246;50.826;4.712;2022-11-20T07:34:51;8.43;;;6.63;;
12363;SDS011;6246;50.826;4.712;2022-11-20T07:37:17;9.37;;;6.67;;
12363;SDS011;6246;50.826;4.712;2022-11-20T07:39:43;9.50;;;6.57;;
12363;SDS011;6246;50.826;4.712;2022-11-20T07:42:09;9.63;;;7.03;;
12363;SDS011;6246;50.826;4.712;2022-11-20T07:44:37;8.60;;;6.77;;
12363;SDS011;6246;50.826;4.712;2022-11-20T07:47:03;9.70;;;6.50;;
12363;SDS011;6246;50.826;4.712;2022-11-20T07:49:29;8.70;;;6.43;;
12363;SDS011;6246;50.826;4.712;2022-11-20T07:51:55;9.10;;;7.07;;
12363;SDS011;6246;50.826;4.712;2022-11-20T07:54:21;9.77;;;7.33;;
12363;SDS011;6246;50.826;4.712;2022-11-20T07:56:48;8.60;;;6.40;;
12363;SDS011;6246;50.826;4.712;2022-11-20T07:59:14;10.10;;;7.43;;
12363;SDS011;6246;50.826;4.712;2022-11-20T08:01:40;9.53;;;7.03;;
12363;SDS011;6246;50.826;4.712;2022-11-20T08:04:07;9.27;;;6.63;;
12363;SDS011;6246;50.826;4.712;2022-11-20T08:06:33;10.53;;;7.00;;
12363;SDS011;6246;50.826;4.712;2022-11-20T08:08:59;9.60;;;6.97;;
12363;SDS011;6246;50.826;4.712;2022-11-20T08:11:25;10.03;;;7.00;;
12363;SDS011;6246;50.826;4.712;2022-11-20T08:14:10;12.03;;;7.37;;
12363;SDS011;6246;50.826;4.712;2022-11-20T08:16:39;9.67;;;6.90;;
12363;SDS011;6246;50.826;4.712;2022-11-20T08:19:05;9.33;;;6.90;;
12363;SDS011;6246;50.826;4.712;2022-11-20T08:21:31;9.40;;;7.00;;
12363;SDS011;6246;50.826;4.712;2022-11-20T08:23:58;8.77;;;7.03;;
12363;SDS011;6246;50.826;4.712;2022-11-20T08:26:24;9.53;;;7.30;;
12363;SDS011;6246;50.826;4.712;2022-11-20T08:28:53;9.73;;;7.30;;
12363;SDS011;6246;50.826;4.712;2022-11-20T08:31:20;10.00;;;7.17;;
12363;SDS011;6246;50.826;4.712;2022-11-20T08:33:46;9.53;;;7.20;;
12363;SDS011;6246;50.826;4.712;2022-11-20T08:36:12;9.40;;;6.70;;
12363;SDS011;6246;50.826;4.712;2022-11-20T08:38:38;9.83;;;7.20;;
12363;SDS011;6246;50.826;4.712;2022-11-20T08:41:05;10.03;;;7.33;;
12363;SDS011;6246;50.826;4.712;2022-11-20T08:43:51;8.47;;;6.47;;
12363;SDS011;6246;50.826;4.712;2022-11-20T08:46:17;10.07;;;7.00;;
12363;SDS011;6246;50.826;4.712;2022-11-20T08:48:43;9.43;;;6.77;;
12363;SDS011;6246;50.826;4.712;2022-11-20T08:51:10;10.37;;;7.13;;
12363;SDS011;6246;50.826;4.712;2022-11-20T08:53:36;9.23;;;6.97;;
12363;SDS011;6246;50.826;4.712;2022-11-20T08:56:03;8.83;;;6.87;;
12363;SDS011;6246;50.826;4.712;2022-11-20T08:58:29;8.57;;;6.70;;
12363;SDS011;6246;50.826;4.712;2022-11-20T09:00:55;9.87;;;6.70;;
12363;SDS011;6246;50.826;4.712;2022-11-20T09:03:21;8.77;;;6.67;;
12363;SDS011;6246;50.826;4.712;2022-11-20T09:05:47;9.73;;;6.83;;
12363;SDS011;6246;50.826;4.712;2022-11-20T09:08:13;9.40;;;6.93;;
12363;SDS011;6246;50.826;4.712;2022-11-20T09:10:39;9.87;;;6.80;;
12363;SDS011;6246;50.826;4.712;2022-11-20T09:13:05;9.97;;;7.47;;
12363;SDS011;6246;50.826;4.712;2022-11-20T09:15:32;10.43;;;7.20;;
12363;SDS011;6246;50.826;4.712;2022-11-20T09:17:59;9.87;;;7.30;;
12363;SDS011;6246;50.826;4.712;2022-11-20T09:20:26;9.97;;;6.83;;
12363;SDS011;6246;50.826;4.712;2022-11-20T09:22:53;10.20;;;7.37;;
12363;SDS011;6246;50.826;4.712;2022-11-20T09:25:19;9.77;;;7.63;;
12363;SDS011;6246;50.826;4.712;2022-11-20T09:27:45;10.30;;;7.60;;
12363;SDS011;6246;50.826;4.712;2022-11-20T09:30:14;10.80;;;6.90;;
12363;SDS011;6246;50.826;4.712;2022-11-20T09:32:41;9.60;;;6.83;;
12363;SDS011;6246;50.826;4.712;2022-11-20T09:35:07;8.90;;;6.80;;
12363;SDS011;6246;50.826;4.712;2022-11-20T09:37:33;10.40;;;7.20;;
12363;SDS011;6246;50.826;4.712;2022-11-20T09:39:59;9.90;;;7.17;;
12363;SDS011;6246;50.826;4.712;2022-11-20T09:42:32;11.13;;;7.77;;
12363;SDS011;6246;50.826;4.712;2022-11-20T09:47:33;11.57;;;7.43;;
12363;SDS011;6246;50.826;4.712;2022-11-20T09:52:47;9.07;;;6.80;;
12363;SDS011;6246;50.826;4.712;2022-11-20T09:55:16;8.17;;;6.63;;
12363;SDS011;6246;50.826;4.712;2022-11-20T09:57:44;9.53;;;6.70;;
12363;SDS011;6246;50.826;4.712;2022-11-20T10:00:12;10.77;;;6.70;;
12363;SDS011;6246;50.826;4.712;2022-11-20T10:02:47;8.77;;;6.60;;
12363;SDS011;6246;50.826;4.712;2022-11-20T10:07:52;9.80;;;7.47;;
12363;SDS011;6246;50.826;4.712;2022-11-20T10:10:31;8.00;;;6.13;;
12363;SDS011;6246;50.826;4.712;2022-11-20T10:13:20;9.03;;;6.27;;
12363;SDS011;6246;50.826;4.712;2022-11-20T10:15:53;9.77;;;6.70;;
12363;SDS011;6246;50.826;4.712;2022-11-20T10:20:50;10.13;;;7.63;;
12363;SDS011;6246;50.826;4.712;2022-11-20T10:25:45;9.27;;;6.60;;
12363;SDS011;6246;50.826;4.712;2022-11-20T10:30:42;8.20;;;6.57;;
12363;SDS011;6246;50.826;4.712;2022-11-20T10:33:21;11.53;;;7.57;;
12363;SDS011;6246;50.826;4.712;2022-11-20T10:38:21;10.37;;;6.70;;
12363;SDS011;6246;50.826;4.712;2022-11-20T10:40:51;9.63;;;6.80;;
12363;SDS011;6246;50.826;4.712;2022-11-20T10:43:21;9.23;;;6.63;;
12363;SDS011;6246;50.826;4.712;2022-11-20T10:48:27;8.23;;;6.33;;
12363;SDS011;6246;50.826;4.712;2022-11-20T11:01:20;7.93;;;6.20;;
12363;SDS011;6246;50.826;4.712;2022-11-20T11:03:51;8.70;;;6.30;;
12363;SDS011;6246;50.826;4.712;2022-11-20T11:09:04;8.47;;;6.07;;
12363;SDS011;6246;50.826;4.712;2022-11-20T11:11:34;8.23;;;6.23;;
12363;SDS011;6246;50.826;4.712;2022-11-20T11:14:13;7.50;;;6.00;;
12363;SDS011;6246;50.826;4.712;2022-11-20T11:16:55;8.47;;;6.50;;
12363;SDS011;6246;50.826;4.712;2022-11-20T11:19:22;8.60;;;6.20;;
12363;SDS011;6246;50.826;4.712;2022-11-20T11:21:57;7.60;;;5.57;;
12363;SDS011;6246;50.826;4.712;2022-11-20T11:24:26;7.30;;;6.00;;
12363;SDS011;6246;50.826;4.712;2022-11-20T11:26:57;7.57;;;6.37;;
12363;SDS011;6246;50.826;4.712;2022-11-20T11:29:24;7.00;;;5.73;;
12363;SDS011;6246;50.826;4.712;2022-11-20T11:35:01;7.80;;;6.13;;
12363;SDS011;6246;50.826;4.712;2022-11-20T11:37:32;8.83;;;5.90;;
12363;SDS011;6246;50.826;4.712;2022-11-20T11:39:59;6.30;;;5.43;;
12363;SDS011;6246;50.826;4.712;2022-11-20T11:42:25;7.00;;;5.57;;
12363;SDS011;6246;50.826;4.712;2022-11-20T11:44:54;7.17;;;5.50;;
12363;SDS011;6246;50.826;4.712;2022-11-20T11:47:32;7.63;;;5.97;;
12363;SDS011;6246;50.826;4.712;2022-11-20T11:52:42;6.97;;;5.50;;
12363;SDS011;6246;50.826;4.712;2022-11-20T11:55:12;7.13;;;5.87;;
12363;SDS011;6246;50.826;4.712;2022-11-20T11:57:49;7.00;;;5.53;;
12363;SDS011;6246;50.826;4.712;2022-11-20T12:00:19;6.37;;;5.30;;
12363;SDS011;6246;50.826;4.712;2022-11-20T12:08:03;6.17;;;5.23;;
12363;SDS011;6246;50.826;4.712;2022-11-20T12:10:38;8.10;;;5.33;;
12363;SDS011;6246;50.826;4.712;2022-11-20T12:13:10;6.20;;;5.20;;
12363;SDS011;6246;50.826;4.712;2022-11-20T12:15:41;5.80;;;5.03;;
12363;SDS011;6246;50.826;4.712;2022-11-20T12:18:13;6.63;;;5.07;;
12363;SDS011;6246;50.826;4.712;2022-11-20T12:20:43;6.90;;;5.67;;
12363;SDS011;6246;50.826;4.712;2022-11-20T12:23:18;6.13;;;5.23;;
12363;SDS011;6246;50.826;4.712;2022-11-20T12:25:48;5.93;;;4.90;;
12363;SDS011;6246;50.826;4.712;2022-11-20T12:33:32;6.37;;;4.80;;
12363;SDS011;6246;50.826;4.712;2022-11-20T12:36:06;6.13;;;5.10;;
12363;SDS011;6246;50.826;4.712;2022-11-20T12:38:36;6.00;;;4.80;;
12363;SDS011;6246;50.826;4.712;2022-11-20T12:41:18;6.93;;;5.37;;
12363;SDS011;6246;50.826;4.712;2022-11-20T12:47:44;6.87;;;5.00;;
12363;SDS011;6246;50.826;4.712;2022-11-20T12:50:05;5.10;;;4.60;;
12363;SDS011;6246;50.826;4.712;2022-11-20T12:57:42;5.50;;;4.53;;
12363;SDS011;6246;50.826;4.712;2022-11-20T13:00:11;5.00;;;4.47;;
12363;SDS011;6246;50.826;4.712;2022-11-20T13:07:59;6.20;;;4.90;;
12363;SDS011;6246;50.826;4.712;2022-11-20T13:12:57;6.83;;;4.77;;
12363;SDS011;6246;50.826;4.712;2022-11-20T13:17:57;5.20;;;4.70;;
12363;SDS011;6246;50.826;4.712;2022-11-20T13:20:24;4.73;;;4.27;;
12363;SDS011;6246;50.826;4.712;2022-11-20T13:22:51;4.47;;;4.03;;
12363;SDS011;6246;50.826;4.712;2022-11-20T13:25:35;4.57;;;4.17;;
12363;SDS011;6246;50.826;4.712;2022-11-20T13:28:24;5.20;;;4.60;;
12363;SDS011;6246;50.826;4.712;2022-11-20T13:30:53;4.90;;;4.47;;
12363;SDS011;6246;50.826;4.712;2022-11-20T13:33:25;4.97;;;4.20;;
12363;SDS011;6246;50.826;4.712;2022-11-20T13:35:57;4.93;;;4.33;;
12363;SDS011;6246;50.826;4.712;2022-11-20T13:38:23;6.17;;;4.27;;
12363;SDS011;6246;50.826;4.712;2022-11-20T13:40:54;5.20;;;4.17;;
12363;SDS011;6246;50.826;4.712;2022-11-20T13:45:56;4.70;;;4.20;;
12363;SDS011;6246;50.826;4.712;2022-11-20T13:48:23;4.10;;;3.63;;
12363;SDS011;6246;50.826;4.712;2022-11-20T13:53:42;4.13;;;3.70;;
12363;SDS011;6246;50.826;4.712;2022-11-20T14:01:29;5.67;;;4.30;;
12363;SDS011;6246;50.826;4.712;2022-11-20T14:03:59;3.90;;;3.60;;
12363;SDS011;6246;50.826;4.712;2022-11-20T14:06:27;4.03;;;3.63;;
12363;SDS011;6246;50.826;4.712;2022-11-20T14:08:54;4.63;;;3.60;;
12363;SDS011;6246;50.826;4.712;2022-11-20T14:11:25;4.37;;;3.90;;
12363;SDS011;6246;50.826;4.712;2022-11-20T14:14:04;4.20;;;3.80;;
12363;SDS011;6246;50.826;4.712;2022-11-20T14:16:38;3.80;;;3.50;;
12363;SDS011;6246;50.826;4.712;2022-11-20T14:21:49;4.30;;;3.90;;
12363;SDS011;6246;50.826;4.712;2022-11-20T14:24:20;3.90;;;3.50;;
12363;SDS011;6246;50.826;4.712;2022-11-20T14:26:47;3.93;;;3.47;;
12363;SDS011;6246;50.826;4.712;2022-11-20T14:31:43;4.00;;;3.20;;
12363;SDS011;6246;50.826;4.712;2022-11-20T14:34:13;3.70;;;3.40;;
12363;SDS011;6246;50.826;4.712;2022-11-20T14:36:41;3.67;;;3.37;;
12363;SDS011;6246;50.826;4.712;2022-11-20T14:39:09;3.50;;;3.20;;
12363;SDS011;6246;50.826;4.712;2022-11-20T14:41:36;4.30;;;3.57;;
12363;SDS011;6246;50.826;4.712;2022-11-20T14:44:02;3.37;;;3.07;;
12363;SDS011;6246;50.826;4.712;2022-11-20T14:46:30;4.10;;;3.40;;
12363;SDS011;6246;50.826;4.712;2022-11-20T14:48:57;3.50;;;3.00;;
12363;SDS011;6246;50.826;4.712;2022-11-20T14:51:26;3.70;;;3.40;;
12363;SDS011;6246;50.826;4.712;2022-11-20T14:53:53;3.50;;;3.20;;
12363;SDS011;6246;50.826;4.712;2022-11-20T14:56:23;3.57;;;3.27;;
12363;SDS011;6246;50.826;4.712;2022-11-20T14:58:58;3.17;;;2.93;;
12363;SDS011;6246;50.826;4.712;2022-11-20T15:01:26;3.40;;;3.10;;
12363;SDS011;6246;50.826;4.712;2022-11-20T15:03:59;3.53;;;3.23;;
12363;SDS011;6246;50.826;4.712;2022-11-20T15:06:25;3.07;;;2.83;;
12363;SDS011;6246;50.826;4.712;2022-11-20T15:08:52;3.53;;;3.23;;
12363;SDS011;6246;50.826;4.712;2022-11-20T15:11:19;3.40;;;3.10;;
12363;SDS011;6246;50.826;4.712;2022-11-20T15:13:45;3.27;;;2.90;;
12363;SDS011;6246;50.826;4.712;2022-11-20T15:16:17;3.23;;;2.90;;
12363;SDS011;6246;50.826;4.712;2022-11-20T15:18:43;3.10;;;2.60;;
12363;SDS011;6246;50.826;4.712;2022-11-20T15:21:10;3.40;;;3.10;;
12363;SDS011;6246;50.826;4.712;2022-11-20T15:23:37;3.10;;;2.90;;
12363;SDS011;6246;50.826;4.712;2022-11-20T15:26:09;3.00;;;2.50;;
12363;SDS011;6246;50.826;4.712;2022-11-20T15:28:37;2.43;;;2.23;;
12363;SDS011;6246;50.826;4.712;2022-11-20T15:31:04;3.07;;;2.77;;
12363;SDS011;6246;50.826;4.712;2022-11-20T15:33:31;2.90;;;2.50;;
12363;SDS011;6246;50.826;4.712;2022-11-20T15:35:57;2.80;;;2.60;;
12363;SDS011;6246;50.826;4.712;2022-11-20T15:38:23;2.83;;;2.63;;
12363;SDS011;6246;50.826;4.712;2022-11-20T15:40:49;2.67;;;2.47;;
12363;SDS011;6246;50.826;4.712;2022-11-20T15:43:15;2.90;;;2.50;;
12363;SDS011;6246;50.826;4.712;2022-11-20T15:45:45;2.50;;;2.30;;
12363;SDS011;6246;50.826;4.712;2022-11-20T15:48:19;2.67;;;2.37;;
12363;SDS011;6246;50.826;4.712;2022-11-20T15:51:02;2.73;;;2.53;;
12363;SDS011;6246;50.826;4.712;2022-11-20T15:53:29;3.40;;;2.60;;
12363;SDS011;6246;50.826;4.712;2022-11-20T15:55:55;2.70;;;2.50;;
12363;SDS011;6246;50.826;4.712;2022-11-20T15:58:21;2.70;;;2.47;;
12363;SDS011;6246;50.826;4.712;2022-11-20T16:00:49;2.90;;;2.57;;
12363;SDS011;6246;50.826;4.712;2022-11-20T16:03:15;2.03;;;1.93;;
12363;SDS011;6246;50.826;4.712;2022-11-20T16:05:42;3.10;;;2.60;;
12363;SDS011;6246;50.826;4.712;2022-11-20T16:08:08;2.80;;;2.50;;
12363;SDS011;6246;50.826;4.712;2022-11-20T16:10:34;2.57;;;2.37;;
12363;SDS011;6246;50.826;4.712;2022-11-20T16:13:01;2.47;;;2.27;;
12363;SDS011;6246;50.826;4.712;2022-11-20T16:15:55;2.77;;;2.30;;
12363;SDS011;6246;50.826;4.712;2022-11-20T16:18:22;2.87;;;2.57;;
12363;SDS011;6246;50.826;4.712;2022-11-20T16:20:49;2.37;;;2.17;;
12363;SDS011;6246;50.826;4.712;2022-11-20T16:23:16;2.43;;;1.83;;
12363;SDS011;6246;50.826;4.712;2022-11-20T16:25:42;2.43;;;2.20;;
12363;SDS011;6246;50.826;4.712;2022-11-20T16:28:09;2.63;;;2.43;;
12363;SDS011;6246;50.826;4.712;2022-11-20T16:30:35;2.33;;;2.07;;
12363;SDS011;6246;50.826;4.712;2022-11-20T16:33:01;2.30;;;2.10;;
12363;SDS011;6246;50.826;4.712;2022-11-20T16:35:28;2.33;;;2.13;;